vendredi 7 février 2014

ALERTE SPOTTING 07/02/14

** matinée: du vent, rafales jusqu'à 102 km/h ***

32A G-EZWO easyJet
  dpt U24291  07h20
  U24292/U24207 11h20/11h55
 U24208/U24247  16h00/17h45
  arv U24250 22h25 (night stop)

320 EC-JZQ Vueling (stickers thanks)
  VY8010/VY8011  07h45/08h30

IL9 CU-T1250 Cubana
   CU440/CU441  08h54/11h30

LOH CN-AOR Morocco Air Force
   dpt 10h00

BEH F-GPYY Atlantique Air Assistance
   A58212/A5241     07h45/08h45
   A5242/A58213    12h30/12h55    

ARJ SE-DST Malmo Aviation
  TF850/TF851  11h30/12h20

CNJ PH-FJK
   dpt JNL555 15h00

73H LN-NGE Norwegian (dérive Unicef)
  DY5836/DY5837 19h05/19h40

744 EC-KQC Pullmantur Air
  arv PLM602P 20h30


 Manque les prévisions/immats Air Europa / Flybe / AZ / TAP / BA / certains Air Algérie
*** Heures en Local Time / prévisions soumises
 à modifications de dernières minutes ***

le TAF de la journée

METAR: LFPO 070330Z 20024G40KT 180V240 9999 BKN036 13/06 Q0987
TEMPO 20030G45KT=
TAF LONG: LFPO 062300Z 0700/0806 19015G30KT 9999 BKN030 BECMG 0700/0703
20020G40KT PROB40 TEMPO 0704/0708 22030G55KT RA BKN020 BECMG
0709/0711 24015G30KT -SHRA BKN030TCU BECMG 0713/0715 24015G25KT NSW
BECMG 0715/0717 19014KT SCT035 BECMG 0721/0724 19015G25KT SCT014
BKN020 TEMPO 0802/0806 19018G32KT -RA= 
 Les logs des jours précédents :
 http://www.airkalo.com/ORLYAVIATION/Logdumois.html